createdAt,value
2017-07-17T00:02:01.612Z,5.55
2017-07-17T00:04:36.705Z,5.05
2017-07-17T00:07:11.377Z,4.60
2017-07-17T00:09:45.878Z,6.50
2017-07-17T00:12:20.246Z,5.30
2017-07-17T00:14:54.687Z,5.30
2017-07-17T00:17:29.193Z,5.65
2017-07-17T00:20:03.669Z,5.68
2017-07-17T00:22:38.113Z,5.60
2017-07-17T00:25:13.394Z,4.75
2017-07-17T00:27:47.774Z,5.93
2017-07-17T00:30:23.047Z,5.10
2017-07-17T00:32:57.621Z,6.10
2017-07-17T00:35:32.346Z,5.32
2017-07-17T00:38:06.670Z,5.00
2017-07-17T00:40:41.079Z,4.72
2017-07-17T00:43:15.597Z,4.97
2017-07-17T00:45:50.227Z,5.15
2017-07-17T00:48:25.326Z,4.82
2017-07-17T00:50:59.874Z,6.72
2017-07-17T00:53:35.186Z,5.12
2017-07-17T00:56:09.657Z,6.05
2017-07-17T00:58:44.126Z,5.22
2017-07-17T01:01:19.295Z,5.35
2017-07-17T01:03:54.602Z,6.15
2017-07-17T01:06:29.169Z,5.95
2017-07-17T01:09:03.542Z,5.93
2017-07-17T01:11:38.730Z,6.75
2017-07-17T01:14:13.126Z,5.90
2017-07-17T01:16:47.561Z,6.70
2017-07-17T01:19:21.937Z,6.53
2017-07-17T01:21:56.350Z,5.80
2017-07-17T01:24:30.895Z,5.07
2017-07-17T01:27:05.541Z,6.80
2017-07-17T01:29:39.936Z,5.10
2017-07-17T01:32:14.365Z,6.10
2017-07-17T01:34:49.723Z,6.72
2017-07-17T01:37:24.922Z,6.20
2017-07-17T01:39:59.502Z,6.45
2017-07-17T01:42:33.893Z,6.70
2017-07-17T01:45:08.321Z,5.78
2017-07-17T01:47:42.818Z,6.10
2017-07-17T01:50:17.267Z,6.35
2017-07-17T01:52:51.584Z,6.50
2017-07-17T01:55:25.950Z,6.85
2017-07-17T01:58:01.201Z,6.75
2017-07-17T02:00:35.669Z,6.65
2017-07-17T02:03:10.022Z,5.85
2017-07-17T02:05:44.509Z,6.35
2017-07-17T02:08:19.005Z,5.50
2017-07-17T02:10:53.437Z,7.30
2017-07-17T02:13:27.846Z,7.15
2017-07-17T02:16:02.269Z,6.05
2017-07-17T02:18:36.773Z,5.80
2017-07-17T02:21:11.239Z,6.10
2017-07-17T02:23:45.630Z,5.53
2017-07-17T02:26:19.942Z,6.07
2017-07-17T02:28:54.445Z,5.50
2017-07-17T02:31:28.984Z,6.28
2017-07-17T02:34:03.497Z,5.70
2017-07-17T02:36:37.839Z,5.75
2017-07-17T02:39:12.209Z,6.22
2017-07-17T02:41:47.384Z,6.25
2017-07-17T02:44:21.771Z,8.43
2017-07-17T02:46:56.232Z,5.70
2017-07-17T02:49:30.721Z,6.32
2017-07-17T02:52:05.130Z,6.53
2017-07-17T02:54:39.569Z,5.60
2017-07-17T02:57:14.313Z,5.85
2017-07-17T02:59:48.694Z,5.43
2017-07-17T03:02:23.182Z,7.00
2017-07-17T03:04:57.758Z,7.72
2017-07-17T03:07:32.305Z,7.20
2017-07-17T03:10:06.781Z,5.82
2017-07-17T03:12:41.944Z,5.82
2017-07-17T03:15:16.518Z,5.60
2017-07-17T03:17:50.929Z,6.18
2017-07-17T03:20:25.406Z,5.90
2017-07-17T03:23:00.742Z,5.53
2017-07-17T03:25:35.849Z,6.53
2017-07-17T03:28:10.205Z,6.05
2017-07-17T03:30:44.602Z,6.55
2017-07-17T03:33:19.041Z,5.70
2017-07-17T03:35:53.549Z,5.10
2017-07-17T03:38:28.198Z,6.85
2017-07-17T03:41:02.608Z,5.97
2017-07-17T03:43:37.346Z,7.22
2017-07-17T03:46:11.850Z,6.60
2017-07-17T03:48:46.264Z,6.47
2017-07-17T03:51:20.826Z,6.70
2017-07-17T03:53:55.174Z,7.93
2017-07-17T03:56:29.636Z,8.70
2017-07-17T03:59:04.118Z,9.50
2017-07-17T04:01:39.307Z,9.80
2017-07-17T04:04:13.690Z,7.75
2017-07-17T04:06:48.071Z,7.97
2017-07-17T04:09:22.545Z,7.50
2017-07-17T04:11:56.894Z,7.90
2017-07-17T04:14:31.262Z,8.40
2017-07-17T04:17:05.636Z,7.85
2017-07-17T04:19:40.213Z,7.70
2017-07-17T04:22:14.614Z,6.85
2017-07-17T04:24:49.002Z,7.15
2017-07-17T04:27:23.431Z,7.12
2017-07-17T04:29:57.914Z,6.70
2017-07-17T04:32:32.533Z,8.15
2017-07-17T04:35:06.855Z,6.12
2017-07-17T04:37:41.361Z,6.10
2017-07-17T04:40:16.673Z,7.87
2017-07-17T04:42:51.042Z,6.65
2017-07-17T04:45:25.438Z,6.62
2017-07-17T04:47:59.858Z,7.45
2017-07-17T04:50:34.371Z,7.05
2017-07-17T04:53:08.729Z,7.12
2017-07-17T04:55:43.209Z,8.63
2017-07-17T04:58:18.455Z,7.18
2017-07-17T05:00:53.114Z,6.53
2017-07-17T05:03:27.482Z,7.60
2017-07-17T05:06:01.837Z,7.50
2017-07-17T05:08:36.214Z,5.70
2017-07-17T05:11:11.361Z,5.10
2017-07-17T05:13:45.751Z,6.03
2017-07-17T05:16:20.322Z,7.07
2017-07-17T05:18:54.710Z,5.80
2017-07-17T05:21:29.191Z,5.95
2017-07-17T05:24:03.670Z,5.95
2017-07-17T05:26:38.241Z,7.00
2017-07-17T05:29:12.673Z,6.28
2017-07-17T05:31:48.092Z,7.05
2017-07-17T05:34:22.541Z,6.32
2017-07-17T05:36:56.947Z,6.45
2017-07-17T05:39:31.523Z,5.82
2017-07-17T05:42:06.065Z,5.80
2017-07-17T05:44:40.505Z,6.37
2017-07-17T05:47:14.934Z,4.87
2017-07-17T05:49:50.153Z,5.05
2017-07-17T05:52:24.552Z,4.82
2017-07-17T05:54:59.022Z,4.28
2017-07-17T05:57:33.572Z,4.00
2017-07-17T06:00:08.124Z,5.10
2017-07-17T06:02:43.421Z,3.62
2017-07-17T06:05:17.767Z,3.40
2017-07-17T06:07:52.498Z,3.28
2017-07-17T06:10:26.873Z,2.20
2017-07-17T06:13:01.433Z,2.70
2017-07-17T06:15:35.914Z,2.83
2017-07-17T06:18:10.386Z,2.53
2017-07-17T06:20:44.912Z,2.03
2017-07-17T06:23:19.337Z,2.35
2017-07-17T06:25:53.718Z,2.30
2017-07-17T06:28:28.479Z,1.90
2017-07-17T06:31:02.813Z,2.10
2017-07-17T06:33:37.509Z,2.22
2017-07-17T06:36:12.041Z,2.33
2017-07-17T06:38:46.733Z,2.22
2017-07-17T06:41:21.258Z,2.20
2017-07-17T06:43:55.670Z,2.00
2017-07-17T06:46:30.139Z,2.20
2017-07-17T06:49:05.238Z,2.20
2017-07-17T06:51:39.779Z,2.17
2017-07-17T06:54:14.502Z,2.30
2017-07-17T06:56:49.014Z,2.00
2017-07-17T06:59:23.446Z,1.70
2017-07-17T07:01:57.901Z,1.80
2017-07-17T07:04:33.206Z,1.67
2017-07-17T07:07:07.748Z,1.70
2017-07-17T07:09:42.118Z,2.95
2017-07-17T07:12:16.586Z,2.65
2017-07-17T07:14:50.937Z,2.28
2017-07-17T07:17:25.494Z,1.95
2017-07-17T07:19:59.865Z,2.10
2017-07-17T07:22:34.482Z,2.50
2017-07-17T07:25:08.943Z,1.55
2017-07-17T07:27:43.321Z,2.00
2017-07-17T07:30:17.807Z,1.98
2017-07-17T07:32:52.310Z,2.40
2017-07-17T07:35:26.813Z,2.78
2017-07-17T07:38:01.208Z,1.65
2017-07-17T07:40:35.818Z,2.80
2017-07-17T07:49:18.093Z,1.70
2017-07-17T07:51:52.559Z,2.12
2017-07-17T07:54:27.133Z,1.73
2017-07-17T07:57:01.776Z,2.17
2017-07-17T07:59:36.303Z,1.98
2017-07-17T08:02:10.919Z,1.65
2017-07-17T08:04:45.460Z,2.20
2017-07-17T08:07:20.016Z,2.05
2017-07-17T08:09:54.527Z,2.00
2017-07-17T08:12:29.084Z,1.80
2017-07-17T08:15:03.682Z,2.28
2017-07-17T08:17:38.224Z,1.85
2017-07-17T08:20:12.740Z,2.12
2017-07-17T08:22:47.251Z,2.03
2017-07-17T08:25:21.671Z,2.67
2017-07-17T08:27:56.244Z,2.10
2017-07-17T08:30:30.696Z,2.10
2017-07-17T08:33:05.433Z,2.50
2017-07-17T08:35:39.844Z,2.83
2017-07-17T08:38:14.393Z,1.58
2017-07-17T08:40:48.868Z,2.42
2017-07-17T08:43:23.419Z,1.65
2017-07-17T08:45:58.724Z,1.90
2017-07-17T08:48:33.322Z,2.35
2017-07-17T08:51:07.795Z,1.90
2017-07-17T08:53:42.320Z,1.80
2017-07-17T08:56:16.868Z,1.55
2017-07-17T08:58:51.936Z,2.15
2017-07-17T09:01:26.507Z,1.55
2017-07-17T09:04:01.848Z,2.47
2017-07-17T09:06:36.376Z,3.20
2017-07-17T09:09:10.995Z,1.15
2017-07-17T09:11:45.382Z,1.83
2017-07-17T09:14:19.774Z,1.43
2017-07-17T09:16:54.188Z,1.20
2017-07-17T09:19:28.607Z,1.60
2017-07-17T09:22:03.024Z,1.87
2017-07-17T09:24:37.440Z,2.03
2017-07-17T09:27:12.253Z,1.80
2017-07-17T09:29:46.753Z,1.30
2017-07-17T09:32:21.241Z,0.90
2017-07-17T09:34:55.721Z,1.70
2017-07-17T09:37:30.343Z,0.93
2017-07-17T09:40:04.947Z,1.70
2017-07-17T09:42:40.256Z,1.20
2017-07-17T09:45:14.806Z,1.47
2017-07-17T09:47:49.387Z,1.00
2017-07-17T09:50:23.812Z,1.20
2017-07-17T09:52:58.440Z,1.30
2017-07-17T09:55:33.000Z,1.37
2017-07-17T09:58:07.614Z,1.17
2017-07-17T10:00:42.021Z,1.50
2017-07-17T10:03:16.602Z,1.20
2017-07-17T10:05:50.997Z,1.30
2017-07-17T10:08:25.516Z,1.50
2017-07-17T10:11:00.053Z,1.23
2017-07-17T10:13:34.565Z,1.20
2017-07-17T10:16:09.050Z,1.27
2017-07-17T10:18:43.814Z,1.53
2017-07-17T10:21:18.411Z,1.20
2017-07-17T10:23:53.088Z,1.27
2017-07-17T10:26:27.626Z,1.70
2017-07-17T10:29:02.099Z,0.90
2017-07-17T10:31:36.691Z,1.07
2017-07-17T10:34:11.343Z,1.10
2017-07-17T10:36:45.724Z,1.27
2017-07-17T10:39:20.336Z,1.37
2017-07-17T10:41:54.756Z,1.40
2017-07-17T10:44:30.153Z,1.60
2017-07-17T10:47:05.364Z,1.20
2017-07-17T10:49:39.913Z,1.50
2017-07-17T10:52:14.307Z,1.30
2017-07-17T10:54:49.169Z,1.10
2017-07-17T10:57:23.680Z,1.57
2017-07-17T10:59:58.403Z,1.97
2017-07-17T11:02:32.914Z,1.57
2017-07-17T11:05:07.503Z,1.10
2017-07-17T11:07:42.004Z,1.40
2017-07-17T11:10:16.697Z,1.60
2017-07-17T11:12:51.083Z,1.07
2017-07-17T11:15:25.502Z,1.37
2017-07-17T11:17:59.953Z,2.20
2017-07-17T11:20:34.481Z,1.90
2017-07-17T11:23:09.127Z,1.57
2017-07-17T11:25:43.592Z,1.33
2017-07-17T11:28:18.168Z,1.50
2017-07-17T11:30:52.559Z,1.60
2017-07-17T11:33:27.107Z,1.30
2017-07-17T11:36:01.696Z,1.10
2017-07-17T11:38:36.152Z,1.77
2017-07-17T11:41:11.384Z,2.05
2017-07-17T11:43:45.867Z,1.40
2017-07-17T11:56:59.588Z,1.83
2017-07-17T11:59:34.904Z,1.62
2017-07-17T12:02:09.312Z,1.48
2017-07-17T12:04:43.875Z,1.33
2017-07-17T12:07:18.700Z,1.33
2017-07-17T12:09:54.007Z,1.73
2017-07-17T12:12:28.494Z,2.15
2017-07-17T12:15:03.880Z,1.77
2017-07-17T12:17:39.447Z,1.30
2017-07-17T12:20:14.052Z,2.10
2017-07-17T12:22:48.695Z,1.70
2017-07-17T12:25:23.176Z,1.60
2017-07-17T12:27:57.843Z,1.52
2017-07-17T12:30:32.353Z,1.37
2017-07-17T12:33:06.927Z,2.00
2017-07-17T12:35:41.511Z,1.27
2017-07-17T12:38:16.357Z,1.87
2017-07-17T12:40:50.802Z,1.70
2017-07-17T12:43:26.088Z,1.40
2017-07-17T12:46:00.611Z,1.67
2017-07-17T12:48:35.967Z,2.53
2017-07-17T12:51:10.463Z,1.80
2017-07-17T12:53:45.029Z,2.12
2017-07-17T12:56:19.491Z,1.67
2017-07-17T12:58:53.976Z,1.65
2017-07-17T13:01:28.574Z,1.80
2017-07-17T13:04:03.127Z,1.80
2017-07-17T13:06:37.587Z,2.40
2017-07-17T13:09:12.047Z,1.53
2017-07-17T13:11:47.343Z,1.80
2017-07-17T13:14:21.942Z,1.97
2017-07-17T13:16:56.375Z,1.90
2017-07-17T13:19:30.971Z,1.37
2017-07-17T13:22:05.452Z,1.42
2017-07-17T13:24:39.896Z,1.87
2017-07-17T13:27:14.375Z,1.75
2017-07-17T13:29:48.971Z,1.52
2017-07-17T13:32:24.134Z,1.35
2017-07-17T13:34:58.727Z,1.52
2017-07-17T13:37:33.168Z,1.65
2017-07-17T13:40:07.625Z,2.03
2017-07-17T13:42:42.083Z,1.70
2017-07-17T13:45:17.488Z,6.60
2017-07-17T13:47:51.992Z,10.77
2017-07-17T13:50:26.731Z,5.57
2017-07-17T13:53:01.223Z,5.30
2017-07-17T13:55:35.795Z,4.40
2017-07-17T13:58:11.072Z,3.67
2017-07-17T14:00:45.643Z,1.20
2017-07-17T14:03:20.136Z,1.85
2017-07-17T14:05:54.731Z,1.55
2017-07-17T14:08:29.250Z,2.22
2017-07-17T14:11:03.643Z,2.30
2017-07-17T14:13:38.179Z,2.17
2017-07-17T14:16:13.464Z,1.45
2017-07-17T14:18:47.968Z,4.00
2017-07-17T14:21:22.464Z,3.60
2017-07-17T14:23:56.923Z,3.15
2017-07-17T14:26:31.469Z,2.75
2017-07-17T14:29:06.787Z,2.35
2017-07-17T14:31:41.537Z,1.37
2017-07-17T14:34:16.143Z,2.00
2017-07-17T14:36:50.544Z,1.70
2017-07-17T14:39:25.306Z,1.60
2017-07-17T14:42:00.228Z,1.55
2017-07-17T14:44:34.660Z,2.78
2017-07-17T14:47:09.171Z,1.30
2017-07-17T14:49:43.817Z,2.05
2017-07-17T14:52:19.158Z,1.80
2017-07-17T14:54:53.599Z,1.52
2017-07-17T14:57:28.091Z,1.90
2017-07-17T15:00:02.722Z,1.92
2017-07-17T15:02:37.280Z,1.58
2017-07-17T15:05:11.723Z,2.22
2017-07-17T15:07:47.035Z,1.50
2017-07-17T15:10:21.584Z,1.80
2017-07-17T15:12:56.136Z,1.98
2017-07-17T15:15:30.675Z,2.80
2017-07-17T15:18:05.056Z,2.60
2017-07-17T15:20:39.538Z,1.62
2017-07-17T15:23:13.904Z,2.60
2017-07-17T15:25:48.336Z,1.90
2017-07-17T15:28:22.995Z,2.10
2017-07-17T15:30:57.574Z,2.20
2017-07-17T15:33:32.903Z,2.55
2017-07-17T15:36:07.324Z,2.05
2017-07-17T15:38:42.527Z,2.50
2017-07-17T15:41:17.116Z,2.28
2017-07-17T15:43:51.499Z,2.37
2017-07-17T15:46:26.100Z,2.37
2017-07-17T15:49:00.516Z,1.90
2017-07-17T15:51:35.939Z,2.03
2017-07-17T15:54:10.341Z,2.03
2017-07-17T15:56:44.832Z,2.50
2017-07-17T15:59:19.575Z,1.92
2017-07-17T16:01:54.095Z,2.70
2017-07-17T16:04:28.659Z,2.42
2017-07-17T16:07:03.103Z,1.95
2017-07-17T16:09:37.675Z,3.25
2017-07-17T16:12:13.897Z,2.67
2017-07-17T16:14:48.654Z,2.70
2017-07-17T16:17:23.043Z,2.03
2017-07-17T16:19:57.569Z,2.33
2017-07-17T16:22:32.103Z,2.42
2017-07-17T16:25:07.660Z,3.17
2017-07-17T16:27:42.091Z,2.87
2017-07-17T16:30:16.805Z,2.42
2017-07-17T16:32:51.190Z,2.55
2017-07-17T16:35:25.661Z,2.17
2017-07-17T16:38:00.233Z,2.47
2017-07-17T16:40:34.806Z,2.25
2017-07-17T16:43:09.260Z,2.53
2017-07-17T16:45:43.856Z,3.30
2017-07-17T16:48:18.256Z,2.10
2017-07-17T16:50:52.738Z,2.35
2017-07-17T16:53:27.204Z,2.45
2017-07-17T16:56:02.500Z,2.95
2017-07-17T16:58:37.059Z,3.22
2017-07-17T17:01:11.639Z,2.58
2017-07-17T17:03:46.051Z,3.60
2017-07-17T17:06:20.530Z,2.47
2017-07-17T17:08:55.828Z,2.00
2017-07-17T17:11:30.266Z,2.08
2017-07-17T17:14:05.483Z,2.12
2017-07-17T17:16:39.980Z,2.20
2017-07-17T17:19:14.503Z,1.85
2017-07-17T17:21:49.117Z,1.90
2017-07-17T17:24:24.276Z,2.12
2017-07-17T17:26:58.744Z,1.95
2017-07-17T17:29:33.224Z,1.95
2017-07-17T17:32:07.988Z,2.20
2017-07-17T17:34:42.499Z,2.80
2017-07-17T17:37:17.159Z,2.80
2017-07-17T17:39:51.526Z,2.60
2017-07-17T17:42:26.259Z,1.62
2017-07-17T17:45:00.770Z,2.12
2017-07-17T17:47:35.247Z,2.67
2017-07-17T17:50:09.714Z,2.25
2017-07-17T17:52:45.296Z,2.55
2017-07-17T17:55:20.372Z,2.72
2017-07-17T17:57:55.764Z,3.03
2017-07-17T18:00:30.272Z,2.35
2017-07-17T18:03:04.708Z,1.95
2017-07-17T18:05:39.807Z,3.03
2017-07-17T18:08:14.487Z,2.03
2017-07-17T18:10:48.847Z,3.95
2017-07-17T18:13:23.427Z,2.20
2017-07-17T18:15:58.732Z,2.22
2017-07-17T18:18:35.751Z,2.78
2017-07-17T18:21:11.126Z,1.90
2017-07-17T18:23:45.724Z,2.40
2017-07-17T18:26:20.176Z,2.40
2017-07-17T18:28:54.654Z,2.37
2017-07-17T18:31:29.138Z,2.72
2017-07-17T18:34:03.734Z,2.17
2017-07-17T18:36:38.301Z,2.40
2017-07-17T18:39:12.864Z,3.03
2017-07-17T18:41:47.451Z,2.70
2017-07-17T18:44:22.980Z,2.28
2017-07-17T18:46:57.532Z,2.53
2017-07-17T18:49:32.169Z,2.97
2017-07-17T18:52:06.508Z,2.33
2017-07-17T18:54:41.080Z,2.10
2017-07-17T18:57:15.571Z,2.67
2017-07-17T18:59:50.015Z,2.90
2017-07-17T19:05:28.196Z,2.17
2017-07-17T19:08:02.761Z,3.92
2017-07-17T19:10:37.287Z,3.55
2017-07-17T19:13:11.718Z,4.20
2017-07-17T19:15:47.556Z,2.85
2017-07-17T19:18:21.961Z,3.00
2017-07-17T19:20:56.567Z,3.00
2017-07-17T19:23:31.699Z,3.05
2017-07-17T19:26:06.372Z,2.70
2017-07-17T19:28:41.794Z,2.70
2017-07-17T19:31:16.245Z,3.05
2017-07-17T19:33:50.626Z,2.92
2017-07-17T19:36:25.121Z,2.80
2017-07-17T19:38:59.795Z,3.62
2017-07-17T19:41:34.215Z,3.17
2017-07-17T19:44:08.726Z,2.85
2017-07-17T19:46:43.155Z,3.03
2017-07-17T19:49:17.755Z,2.45
2017-07-17T19:51:52.299Z,3.45
2017-07-17T19:54:26.701Z,3.50
2017-07-17T19:57:01.243Z,3.15
2017-07-17T19:59:35.826Z,4.40
2017-07-17T20:02:11.409Z,4.00
2017-07-17T20:04:45.791Z,3.90
2017-07-17T20:07:20.407Z,3.53
2017-07-17T20:09:54.935Z,3.35
2017-07-17T20:12:29.484Z,3.15
2017-07-17T20:15:04.035Z,3.65
2017-07-17T20:17:38.588Z,3.10
2017-07-17T20:20:13.055Z,3.28
2017-07-17T20:22:47.609Z,3.37
2017-07-17T20:25:22.192Z,3.28
2017-07-17T20:27:56.787Z,3.33
2017-07-17T20:30:31.365Z,3.53
2017-07-17T20:33:05.840Z,3.10
2017-07-17T20:35:40.582Z,3.05
2017-07-17T20:38:14.997Z,2.90
2017-07-17T20:40:49.743Z,3.03
2017-07-17T20:43:24.231Z,2.70
2017-07-17T20:45:58.848Z,2.37
2017-07-17T20:48:33.284Z,3.55
2017-07-17T20:51:08.656Z,3.60
2017-07-17T20:53:43.945Z,3.10
2017-07-17T20:56:18.656Z,3.80
2017-07-17T20:58:53.115Z,3.75
2017-07-17T21:01:27.759Z,3.95
2017-07-17T21:04:02.216Z,3.80
2017-07-17T21:06:36.879Z,4.25
2017-07-17T21:09:11.406Z,3.22
2017-07-17T21:11:45.933Z,3.97
2017-07-17T21:14:20.451Z,2.90
2017-07-17T21:16:54.888Z,3.53
2017-07-17T21:19:29.556Z,4.43
2017-07-17T21:22:04.112Z,3.62
2017-07-17T21:24:38.648Z,3.50
2017-07-17T21:27:13.079Z,3.28
2017-07-17T21:29:47.470Z,3.65
2017-07-17T21:32:22.055Z,4.05
2017-07-17T21:34:56.495Z,3.65
2017-07-17T21:37:31.068Z,3.92
2017-07-17T21:40:05.597Z,3.08
2017-07-17T21:42:40.112Z,4.95
2017-07-17T21:45:14.637Z,3.72
2017-07-17T21:47:49.115Z,3.58
2017-07-17T21:50:23.574Z,4.10
2017-07-17T21:52:58.111Z,4.57
2017-07-17T21:55:32.543Z,4.53
2017-07-17T21:58:06.976Z,3.87
2017-07-17T22:00:41.539Z,3.00
2017-07-17T22:03:16.067Z,4.15
2017-07-17T22:05:50.919Z,4.50
2017-07-17T22:08:25.295Z,2.80
2017-07-17T22:10:59.988Z,3.60
2017-07-17T22:13:34.475Z,4.70
2017-07-17T22:16:09.815Z,4.72
2017-07-17T22:18:45.104Z,3.62
2017-07-17T22:21:19.588Z,3.90
2017-07-17T22:23:54.868Z,4.50
2017-07-17T22:26:29.636Z,4.53
2017-07-17T22:29:04.016Z,3.45
2017-07-17T22:31:38.543Z,3.35
2017-07-17T22:34:13.080Z,4.78
2017-07-17T22:36:47.604Z,4.00
2017-07-17T22:39:22.170Z,3.37
2017-07-17T22:41:56.582Z,3.40
2017-07-17T22:44:31.220Z,4.95
2017-07-17T22:47:05.776Z,4.05
2017-07-17T22:49:40.376Z,4.82
2017-07-17T22:52:14.806Z,4.07
2017-07-17T22:54:49.403Z,4.00
2017-07-17T22:57:23.891Z,4.50
2017-07-17T22:59:59.139Z,4.75
2017-07-17T23:02:33.573Z,4.12
2017-07-17T23:05:08.164Z,3.50
2017-07-17T23:07:42.752Z,3.30
2017-07-17T23:10:17.299Z,3.55
2017-07-17T23:12:51.958Z,4.30
2017-07-17T23:15:27.156Z,4.57
2017-07-17T23:18:01.712Z,4.80
2017-07-17T23:20:36.326Z,4.72
2017-07-17T23:23:10.975Z,5.15
2017-07-17T23:25:45.427Z,5.00
2017-07-17T23:28:20.103Z,3.83
2017-07-17T23:30:55.399Z,3.97
2017-07-17T23:33:29.862Z,4.93
2017-07-17T23:36:04.312Z,5.15
2017-07-17T23:38:38.836Z,3.87
2017-07-17T23:41:13.628Z,5.10
2017-07-17T23:43:48.159Z,4.82
2017-07-17T23:46:22.811Z,4.12
2017-07-17T23:48:57.180Z,4.47
2017-07-17T23:51:31.767Z,4.37
2017-07-17T23:54:06.316Z,4.30
2017-07-17T23:56:40.872Z,3.83
2017-07-17T23:59:15.357Z,3.67
